Latest  Newer  Older  Last 2 hours slideshow  Last 24 hours slideshow  Refresh every 5 minutes 
Current image  Latest image  Rain/snow radar  Cloud coverage sat images 

All time is UTC (add 2 hours to UTC in wintertime, 3 hours to UTC in DST for Latvia local time)

2020/05/31 22:50 EVRA 312250Z 35005KT CAVOK 11/02 Q1023 NOSIG
2020/05/31 22:50 EVLA 312250Z AUTO VRB02KT 9999 NCD 09/06 Q1024
2020/05/31 22:50 EVVA 312250Z AUTO 05002KT CAVOK 09/08 Q1025
2020/05/31 22:50 EYKA 312250Z AUTO 02007KT 340V060 9999 NCD 11/02 Q1020
2020/05/31 22:50 EYPA 312250Z AUTO 01005KT 9999 NCD 10/02 Q1024
2020/05/31 22:50 EYSA 312250Z AUTO 01007KT CAVOK 09/02 Q1023 BLU NOSIG
2020/05/31 22:50 EYVI 312250Z 03009KT CAVOK 10/00 Q1019 NOSIG



2020/05/31 22:50 EETN 312250Z AUTO 00000KT CAVOK 09/06 Q1025

   RIGA AIRPORT     EVRA               56 55N  023 58E   10   X     T          6 LV
   LIEPAJA INTL     EVLA        26406  56 31N  021 06E    4   X                8 LV
   VENTPILS         EVVA               57 21N  021 33E    6   X                8 LV
   KAUNAS           EYKA               54 54N  023 55E   77   X     T          6 LT
   PALANGA INTL     EYPA               55 55N  021 03E   10   X                6 LT
   SIAULIAI INTL    EYSA               55 54N  023 24E  135   X     T          6 LT
   VILNIUS INTL     EYVI        26730  54 38N  025 17E  197   X     T          6 LT
   KARDLA           EEKA        26116  58 59N  022 50E    4   X                8 EE
   KURESSAARE       EEKE               58 14N  022 31E    4   X                8 EE
   PARNU            EEPU               58 25N  024 28E   14   X                8 EE
   TALLINN          EETN        26038  59 24N  024 49E   40   X     T          8 EE
   TARTU            EETU               58 19N  026 41E   67   X                8 EE